Terminal Aerodrome Forecast
Issued by NWS

Home | Current Version | Previous Version | Text Only | Print | Product List | Glossary On
Versions: 1 2 3 4 5 6 7 8 9 10 11 12 13 14 15 16 17 18 19 20 21
281
FTUS43 KJKL 281738
TAFSME
TAF
KSME 281738Z 2818/2918 22006KT P6SM VCTS SCT040CB
     FM282100 25006KT P6SM VCTS SCT060CB
     FM290200 VRB03KT P6SM VCSH SCT050 BKN200
     FM290800 00000KT 2SM BR BKN090
     FM291300 VRB06KT P6SM VCSH SCT050 BKN100=

USA.gov is the U.S. government's official web portal to all federal, state and local government web resources and services.